DLH560 EDDF-FNBJ
Flight info
| Callsign | DLH560 |
|---|---|
| Flight time | N/A |
| Altitude | 33000 |
| Route | ANEKI2L ANEKI Y163 NATOR DCT TRA DCT RIPUS DCT GERSA DCT SOSON DCT ODINA DCT PIDAD DCT TALEP DCT VAREK DCT ERPIN DCT ETOIL DCT CIRTA UA605 CSO UR978 ATAFA/N0475F350 UR978 AS UA604 DLA UG861 MESIN UY339 LIKAD UR526 VNA |
| Aircraft | A346/H-SDE2E3FGHIJ3J4J5M1P2RWXYZ/LB1D1 |
Departure
| Time | 2026-04-15 21:20 |
|---|---|
| Airport | Frankfurt Main Airport (EDDF) |
Arrival
| Time | N/A |
|---|---|
| Airport | Dr. Antonio Agostinho Neto International Airport (FNBJ) |
| Time | Latitude | Longitude | Altitude | Speed | Heading |
|---|---|---|---|---|---|
| 2026-04-15 20:41 | 50.04796 | 8.56936 | 364 ft | 0 kts | 295° |
| 2026-04-15 21:06 | 50.04795 | 8.56941 | 368 ft | 3 kts | 294° |
| 2026-04-15 21:06 | 50.04785 | 8.56977 | 366 ft | 4 kts | 293° |
| 2026-04-15 21:07 | 50.04780 | 8.57007 | 364 ft | 4 kts | 260° |
| 2026-04-15 21:07 | 50.04783 | 8.57021 | 364 ft | 4 kts | 231° |
| 2026-04-15 21:07 | 50.04797 | 8.57037 | 364 ft | 1 kts | 204° |
| 2026-04-15 21:07 | 50.04789 | 8.57031 | 364 ft | 2 kts | 205° |
| 2026-04-15 21:08 | 50.04788 | 8.57031 | 364 ft | 0 kts | 205° |
| 2026-04-15 21:11 | 50.04787 | 8.57029 | 366 ft | 1 kts | 205° |
| 2026-04-15 21:11 | 50.04774 | 8.57020 | 370 ft | 3 kts | 205° |
| 2026-04-15 21:12 | 50.04747 | 8.57000 | 364 ft | 5 kts | 205° |
| 2026-04-15 21:12 | 50.04705 | 8.56971 | 368 ft | 8 kts | 205° |
| 2026-04-15 21:12 | 50.04652 | 8.56933 | 370 ft | 9 kts | 202° |
| 2026-04-15 21:12 | 50.04587 | 8.56903 | 371 ft | 10 kts | 193° |
| 2026-04-15 21:13 | 50.04530 | 8.56882 | 367 ft | 8 kts | 193° |
| 2026-04-15 21:13 | 50.04473 | 8.56856 | 369 ft | 9 kts | 212° |
| 2026-04-15 21:13 | 50.04437 | 8.56767 | 370 ft | 11 kts | 248° |
| 2026-04-15 21:13 | 50.04408 | 8.56643 | 370 ft | 13 kts | 250° |
| 2026-04-15 21:14 | 50.04374 | 8.56502 | 372 ft | 15 kts | 250° |
| 2026-04-15 21:14 | 50.04338 | 8.56348 | 366 ft | 16 kts | 250° |
| 2026-04-15 21:14 | 50.04298 | 8.56185 | 367 ft | 17 kts | 249° |
| 2026-04-15 21:14 | 50.04256 | 8.56011 | 364 ft | 17 kts | 249° |
| 2026-04-15 21:15 | 50.04213 | 8.55828 | 366 ft | 19 kts | 249° |
| 2026-04-15 21:15 | 50.04165 | 8.55630 | 364 ft | 20 kts | 250° |
| 2026-04-15 21:15 | 50.04114 | 8.55415 | 364 ft | 22 kts | 249° |
| 2026-04-15 21:15 | 50.04061 | 8.55193 | 363 ft | 22 kts | 250° |
| 2026-04-15 21:16 | 50.04006 | 8.54962 | 366 ft | 23 kts | 250° |
| 2026-04-15 21:16 | 50.03950 | 8.54728 | 364 ft | 21 kts | 249° |
| 2026-04-15 21:16 | 50.03896 | 8.54504 | 360 ft | 21 kts | 249° |
| 2026-04-15 21:16 | 50.03832 | 8.54308 | 358 ft | 21 kts | 235° |
| 2026-04-15 21:17 | 50.03770 | 8.54098 | 360 ft | 22 kts | 249° |
| 2026-04-15 21:17 | 50.03716 | 8.53873 | 359 ft | 22 kts | 249° |
| 2026-04-15 21:17 | 50.03662 | 8.53645 | 357 ft | 23 kts | 249° |
| 2026-04-15 21:17 | 50.03600 | 8.53404 | 351 ft | 24 kts | 250° |
| 2026-04-15 21:18 | 50.03540 | 8.53150 | 352 ft | 26 kts | 250° |
| 2026-04-15 21:18 | 50.03486 | 8.52926 | 349 ft | 17 kts | 248° |
| 2026-04-15 21:18 | 50.03444 | 8.52772 | 352 ft | 16 kts | 247° |
| 2026-04-15 21:18 | 50.03410 | 8.52635 | 349 ft | 8 kts | 245° |
| 2026-04-15 21:19 | 50.03366 | 8.52596 | 352 ft | 8 kts | 191° |
| 2026-04-15 21:19 | 50.03305 | 8.52593 | 348 ft | 9 kts | 180° |
| 2026-04-15 21:19 | 50.03182 | 8.52595 | 344 ft | 40 kts | 179° |
| 2026-04-15 21:19 | 50.02713 | 8.52600 | 350 ft | 94 kts | 179° |
| 2026-04-15 21:20 | 50.01897 | 8.52608 | 343 ft | 140 kts | 179° |
| 2026-04-15 21:20 | 50.00781 | 8.52618 | 336 ft | 179 kts | 180° |
| 2026-04-15 21:20 | 49.99495 | 8.52627 | 730 ft | 183 kts | 180° |
| 2026-04-15 21:20 | 49.98214 | 8.52683 | 1178 ft | 187 kts | 178° |
| 2026-04-15 21:21 | 49.96901 | 8.52785 | 1580 ft | 192 kts | 178° |
| 2026-04-15 21:21 | 49.95533 | 8.52890 | 1814 ft | 202 kts | 178° |
| 2026-04-15 21:21 | 49.94095 | 8.52997 | 2029 ft | 212 kts | 179° |
| 2026-04-15 21:21 | 49.92584 | 8.53106 | 2236 ft | 223 kts | 179° |
| 2026-04-15 21:22 | 49.91019 | 8.53221 | 2582 ft | 226 kts | 179° |
| 2026-04-15 21:22 | 49.89448 | 8.53337 | 3078 ft | 225 kts | 179° |
| 2026-04-15 21:22 | 49.87880 | 8.53452 | 3540 ft | 226 kts | 179° |
| 2026-04-15 21:22 | 49.86301 | 8.53563 | 3974 ft | 228 kts | 179° |
| 2026-04-15 21:23 | 49.84709 | 8.53678 | 4441 ft | 229 kts | 179° |
| 2026-04-15 21:23 | 49.83102 | 8.53796 | 4930 ft | 231 kts | 179° |
| 2026-04-15 21:23 | 49.81494 | 8.53914 | 5414 ft | 232 kts | 179° |
| 2026-04-15 21:23 | 49.79876 | 8.54031 | 5909 ft | 233 kts | 179° |
| 2026-04-15 21:24 | 49.78248 | 8.54102 | 6408 ft | 235 kts | 182° |
| 2026-04-15 21:24 | 49.76601 | 8.53959 | 6791 ft | 242 kts | 186° |
| 2026-04-15 21:24 | 49.74882 | 8.53733 | 7036 ft | 254 kts | 186° |
| 2026-04-15 21:24 | 49.73081 | 8.53491 | 7255 ft | 266 kts | 186° |
| 2026-04-15 21:25 | 49.71196 | 8.53238 | 7581 ft | 274 kts | 186° |
| 2026-04-15 21:25 | 49.69285 | 8.52985 | 8114 ft | 278 kts | 186° |
| 2026-04-15 21:25 | 49.67356 | 8.52731 | 8802 ft | 279 kts | 187° |
| 2026-04-15 21:25 | 49.65441 | 8.52479 | 9431 ft | 282 kts | 187° |
| 2026-04-15 21:26 | 49.63458 | 8.52217 | 10044 ft | 286 kts | 187° |
| 2026-04-15 21:26 | 49.61429 | 8.51948 | 10584 ft | 292 kts | 187° |
| 2026-04-15 21:26 | 49.59352 | 8.51670 | 10872 ft | 307 kts | 187° |
| 2026-04-15 21:26 | 49.57172 | 8.51380 | 11143 ft | 322 kts | 187° |
| 2026-04-15 21:27 | 49.54887 | 8.51077 | 11409 ft | 337 kts | 187° |
| 2026-04-15 21:27 | 49.52542 | 8.50768 | 11704 ft | 350 kts | 187° |
| 2026-04-15 21:27 | 49.50067 | 8.50443 | 11965 ft | 364 kts | 187° |
| 2026-04-15 21:27 | 49.47476 | 8.50104 | 12252 ft | 377 kts | 187° |
| 2026-04-15 21:28 | 49.44843 | 8.49761 | 12784 ft | 382 kts | 187° |
| 2026-04-15 21:28 | 49.42183 | 8.49415 | 13448 ft | 384 kts | 187° |
| 2026-04-15 21:28 | 49.39515 | 8.49068 | 14086 ft | 387 kts | 187° |
| 2026-04-15 21:28 | 49.36825 | 8.48717 | 14612 ft | 390 kts | 187° |
| 2026-04-15 21:29 | 49.34103 | 8.48362 | 15131 ft | 394 kts | 187° |
| 2026-04-15 21:29 | 49.31361 | 8.48005 | 15646 ft | 397 kts | 187° |
| 2026-04-15 21:29 | 49.28590 | 8.47645 | 16161 ft | 401 kts | 187° |
| 2026-04-15 21:29 | 49.25803 | 8.47284 | 16672 ft | 405 kts | 187° |
| 2026-04-15 21:30 | 49.22963 | 8.46914 | 17183 ft | 408 kts | 187° |
| 2026-04-15 21:30 | 49.20121 | 8.46544 | 17671 ft | 412 kts | 187° |
| 2026-04-15 21:30 | 49.17251 | 8.46169 | 18158 ft | 416 kts | 187° |
| 2026-04-15 21:30 | 49.14360 | 8.45794 | 18632 ft | 419 kts | 187° |
| 2026-04-15 21:31 | 49.08506 | 8.45005 | 19523 ft | 424 kts | 189° |
| 2026-04-15 21:31 | 49.05560 | 8.44372 | 19982 ft | 425 kts | 192° |
| 2026-04-15 21:32 | 48.99757 | 8.42467 | 20876 ft | 429 kts | 195° |
| 2026-04-15 21:32 | 48.96831 | 8.41443 | 21297 ft | 432 kts | 195° |
| 2026-04-15 21:32 | 48.93894 | 8.40419 | 21721 ft | 435 kts | 195° |
| 2026-04-15 21:32 | 48.90934 | 8.39391 | 22148 ft | 437 kts | 195° |
| 2026-04-15 21:33 | 48.87964 | 8.38360 | 22559 ft | 439 kts | 195° |
| 2026-04-15 21:33 | 48.84983 | 8.37326 | 22953 ft | 441 kts | 195° |
| 2026-04-15 21:33 | 48.81980 | 8.36287 | 23360 ft | 444 kts | 195° |
| 2026-04-15 21:33 | 48.78960 | 8.35243 | 23766 ft | 446 kts | 195° |
| 2026-04-15 21:34 | 48.75931 | 8.34160 | 24094 ft | 448 kts | 196° |
| 2026-04-15 21:34 | 48.72890 | 8.33046 | 24428 ft | 451 kts | 196° |
| 2026-04-15 21:34 | 48.69829 | 8.31921 | 24773 ft | 453 kts | 196° |
| 2026-04-15 21:34 | 48.66758 | 8.30794 | 25114 ft | 455 kts | 196° |
| 2026-04-15 21:35 | 48.63670 | 8.29666 | 25455 ft | 457 kts | 196° |
| 2026-04-15 21:35 | 48.60575 | 8.28539 | 25810 ft | 459 kts | 196° |
| 2026-04-15 21:35 | 48.57464 | 8.27408 | 26133 ft | 461 kts | 196° |
| 2026-04-15 21:35 | 48.54341 | 8.26276 | 26469 ft | 462 kts | 196° |
| 2026-04-15 21:36 | 48.51162 | 8.25406 | 26783 ft | 467 kts | 189° |
| 2026-04-15 21:36 | 48.47900 | 8.25125 | 27108 ft | 472 kts | 182° |
| 2026-04-15 21:36 | 48.44612 | 8.25446 | 27416 ft | 476 kts | 175° |
| 2026-04-15 21:36 | 48.41327 | 8.26193 | 27759 ft | 478 kts | 173° |
| 2026-04-15 21:37 | 48.38045 | 8.27008 | 28195 ft | 477 kts | 173° |
| 2026-04-15 21:37 | 48.34821 | 8.27816 | 28658 ft | 475 kts | 173° |
| 2026-04-15 21:37 | 48.31560 | 8.28623 | 29118 ft | 474 kts | 173° |
| 2026-04-15 21:37 | 48.28299 | 8.29420 | 29554 ft | 474 kts | 174° |
| 2026-04-15 21:38 | 48.25049 | 8.30207 | 29985 ft | 473 kts | 174° |
| 2026-04-15 21:38 | 48.21803 | 8.30989 | 30402 ft | 472 kts | 174° |
| 2026-04-15 21:38 | 48.18562 | 8.31767 | 30767 ft | 471 kts | 174° |
| 2026-04-15 21:38 | 48.15333 | 8.32545 | 31149 ft | 469 kts | 174° |
| 2026-04-15 21:39 | 48.12117 | 8.33326 | 31501 ft | 468 kts | 174° |
| 2026-04-15 21:39 | 48.08897 | 8.34109 | 31822 ft | 468 kts | 174° |
| 2026-04-15 21:39 | 48.05681 | 8.34890 | 32096 ft | 469 kts | 174° |
| 2026-04-15 21:39 | 48.02457 | 8.35671 | 32352 ft | 470 kts | 174° |
| 2026-04-15 21:40 | 47.99230 | 8.36451 | 32627 ft | 470 kts | 174° |
| 2026-04-15 21:40 | 47.96001 | 8.37230 | 32890 ft | 471 kts | 174° |
| 2026-04-15 21:40 | 47.92763 | 8.38009 | 33157 ft | 471 kts | 174° |
| 2026-04-15 21:41 | 47.86273 | 8.39567 | 33244 ft | 473 kts | 173° |
| 2026-04-15 21:41 | 47.79770 | 8.41126 | 33247 ft | 473 kts | 173° |
| 2026-04-15 21:42 | 47.73245 | 8.42685 | 33255 ft | 473 kts | 173° |
| 2026-04-15 21:42 | 47.66625 | 8.44054 | 33248 ft | 476 kts | 176° |
| 2026-04-15 21:43 | 47.59996 | 8.45028 | 33262 ft | 476 kts | 176° |
| 2026-04-15 21:43 | 47.53399 | 8.46010 | 33263 ft | 476 kts | 176° |
| 2026-04-15 21:44 | 47.46792 | 8.46982 | 33259 ft | 477 kts | 176° |
| 2026-04-15 21:44 | 47.40192 | 8.47948 | 33264 ft | 477 kts | 176° |
| 2026-04-15 21:45 | 47.33628 | 8.48907 | 33263 ft | 477 kts | 176° |
| 2026-04-15 21:45 | 47.27024 | 8.49868 | 33256 ft | 477 kts | 176° |
| 2026-04-15 21:46 | 47.20343 | 8.50844 | 33254 ft | 477 kts | 176° |
| 2026-04-15 21:46 | 47.13780 | 8.51800 | 33248 ft | 477 kts | 176° |
| 2026-04-15 21:47 | 47.07165 | 8.52758 | 33241 ft | 477 kts | 176° |
| 2026-04-15 21:47 | 47.00538 | 8.53716 | 33235 ft | 480 kts | 176° |
| 2026-04-15 21:48 | 46.93895 | 8.54679 | 33216 ft | 480 kts | 176° |
| 2026-04-15 21:48 | 46.87249 | 8.55637 | 33209 ft | 480 kts | 176° |
| 2026-04-15 21:49 | 46.80603 | 8.56588 | 33203 ft | 480 kts | 176° |
| 2026-04-15 21:49 | 46.73940 | 8.57538 | 33211 ft | 483 kts | 176° |
| 2026-04-15 21:50 | 46.67246 | 8.58493 | 33198 ft | 484 kts | 176° |
| 2026-04-15 21:50 | 46.60549 | 8.59446 | 33194 ft | 484 kts | 176° |
| 2026-04-15 21:51 | 46.53843 | 8.60403 | 33181 ft | 484 kts | 175° |
| 2026-04-15 21:51 | 46.47142 | 8.61355 | 33178 ft | 484 kts | 176° |
| 2026-04-15 21:52 | 46.40439 | 8.62303 | 33184 ft | 484 kts | 176° |
| 2026-04-15 21:52 | 46.33744 | 8.63245 | 33181 ft | 483 kts | 176° |
| 2026-04-15 21:53 | 46.27044 | 8.64186 | 33184 ft | 483 kts | 176° |
| 2026-04-15 21:53 | 46.20348 | 8.65122 | 33172 ft | 484 kts | 176° |
| 2026-04-15 21:54 | 46.13682 | 8.66054 | 33180 ft | 485 kts | 175° |
| 2026-04-15 21:54 | 46.08047 | 8.66568 | 33178 ft | 484 kts | 180° |
| 2026-04-15 21:55 | 46.01959 | 8.66680 | 33175 ft | 484 kts | 180° |
| 2026-04-15 21:55 | 45.95219 | 8.66816 | 33181 ft | 485 kts | 180° |
| 2026-04-15 21:56 | 45.88472 | 8.66953 | 33168 ft | 485 kts | 180° |
| 2026-04-15 21:56 | 45.81725 | 8.67086 | 33172 ft | 486 kts | 180° |
| 2026-04-15 21:57 | 45.74948 | 8.67214 | 33169 ft | 488 kts | 180° |
| 2026-04-15 21:57 | 45.68150 | 8.67350 | 33162 ft | 489 kts | 180° |
| 2026-04-15 21:58 | 45.61347 | 8.67486 | 33157 ft | 489 kts | 180° |
| 2026-04-15 21:58 | 45.54532 | 8.67620 | 33158 ft | 489 kts | 180° |
| 2026-04-15 21:59 | 45.47726 | 8.67754 | 33151 ft | 489 kts | 180° |
| 2026-04-15 21:59 | 45.40918 | 8.67884 | 33159 ft | 490 kts | 180° |
| 2026-04-15 22:00 | 45.34093 | 8.68016 | 33148 ft | 490 kts | 180° |
| 2026-04-15 22:00 | 45.27269 | 8.68151 | 33153 ft | 490 kts | 180° |
| 2026-04-15 22:01 | 45.20444 | 8.68282 | 33154 ft | 491 kts | 179° |
| 2026-04-15 22:01 | 45.13607 | 8.68414 | 33152 ft | 491 kts | 179° |
| 2026-04-15 22:02 | 45.06774 | 8.68546 | 33155 ft | 491 kts | 179° |
| 2026-04-15 22:02 | 44.99939 | 8.68677 | 33150 ft | 492 kts | 179° |
| 2026-04-15 22:03 | 44.93101 | 8.68809 | 33154 ft | 492 kts | 179° |
| 2026-04-15 22:03 | 44.86257 | 8.68939 | 33158 ft | 492 kts | 179° |
| 2026-04-15 22:04 | 44.79449 | 8.69066 | 33158 ft | 494 kts | 179° |
| 2026-04-15 22:04 | 44.72576 | 8.69198 | 33158 ft | 494 kts | 179° |
| 2026-04-15 22:05 | 44.65710 | 8.69329 | 33135 ft | 494 kts | 179° |
| 2026-04-15 22:05 | 44.58831 | 8.69459 | 33121 ft | 495 kts | 179° |
| 2026-04-15 22:06 | 44.51944 | 8.69590 | 33111 ft | 495 kts | 179° |
| 2026-04-15 22:06 | 44.45058 | 8.69720 | 33112 ft | 495 kts | 179° |
| 2026-04-15 22:07 | 44.38175 | 8.69849 | 33110 ft | 495 kts | 179° |
| 2026-04-15 22:07 | 44.31290 | 8.69978 | 33110 ft | 495 kts | 179° |
| 2026-04-15 22:08 | 44.24403 | 8.70105 | 33132 ft | 496 kts | 179° |
| 2026-04-15 22:08 | 44.17496 | 8.70234 | 33124 ft | 496 kts | 179° |
| 2026-04-15 22:09 | 44.10594 | 8.70363 | 33110 ft | 496 kts | 179° |
| 2026-04-15 22:09 | 44.03674 | 8.70489 | 33114 ft | 498 kts | 179° |
| 2026-04-15 22:10 | 43.96787 | 8.70617 | 33116 ft | 499 kts | 179° |
| 2026-04-15 22:10 | 43.89848 | 8.70745 | 33106 ft | 499 kts | 179° |
| 2026-04-15 22:11 | 43.82895 | 8.70872 | 33113 ft | 500 kts | 179° |
| 2026-04-15 22:11 | 43.75937 | 8.70999 | 33114 ft | 500 kts | 179° |
| 2026-04-15 22:12 | 43.68977 | 8.71124 | 33121 ft | 500 kts | 179° |
| 2026-04-15 22:12 | 43.61999 | 8.71247 | 33119 ft | 502 kts | 179° |
| 2026-04-15 22:13 | 43.55008 | 8.71209 | 33115 ft | 502 kts | 182° |
| 2026-04-15 22:13 | 43.48071 | 8.70139 | 33119 ft | 503 kts | 191° |
| 2026-04-15 22:14 | 43.41297 | 8.67691 | 33116 ft | 503 kts | 200° |
| 2026-04-15 22:14 | 43.34849 | 8.63965 | 33120 ft | 502 kts | 207° |
| 2026-04-15 22:15 | 43.28942 | 8.60096 | 33124 ft | 503 kts | 207° |
| 2026-04-15 22:15 | 43.22600 | 8.55968 | 33127 ft | 505 kts | 206° |
| 2026-04-15 22:16 | 43.16238 | 8.51862 | 33115 ft | 505 kts | 206° |
| 2026-04-15 22:16 | 43.09876 | 8.47774 | 33113 ft | 506 kts | 206° |
| 2026-04-15 22:17 | 43.03494 | 8.43684 | 33117 ft | 507 kts | 206° |
| 2026-04-15 22:17 | 42.97097 | 8.39595 | 33115 ft | 507 kts | 206° |
| 2026-04-15 22:18 | 42.90699 | 8.35514 | 33121 ft | 508 kts | 206° |
| 2026-04-15 22:18 | 42.84293 | 8.31443 | 33112 ft | 506 kts | 206° |
| 2026-04-15 22:19 | 42.77961 | 8.27421 | 33104 ft | 505 kts | 207° |
| 2026-04-15 22:19 | 42.71591 | 8.23383 | 33119 ft | 506 kts | 206° |
| 2026-04-15 22:20 | 42.65154 | 8.19313 | 33117 ft | 512 kts | 206° |
| 2026-04-15 22:20 | 42.58693 | 8.15238 | 33115 ft | 512 kts | 206° |
| 2026-04-15 22:21 | 42.52236 | 8.11177 | 33110 ft | 512 kts | 206° |
| 2026-04-15 22:21 | 42.45769 | 8.07116 | 33112 ft | 512 kts | 206° |
| 2026-04-15 22:22 | 42.39305 | 8.03066 | 33112 ft | 512 kts | 206° |
| 2026-04-15 22:22 | 42.32842 | 7.99028 | 33115 ft | 512 kts | 206° |
| 2026-04-15 22:23 | 42.26264 | 7.95284 | 33110 ft | 511 kts | 204° |
| 2026-04-15 22:23 | 42.19693 | 7.91674 | 33112 ft | 509 kts | 204° |
| 2026-04-15 22:24 | 42.13128 | 7.88068 | 33113 ft | 509 kts | 204° |
| 2026-04-15 22:24 | 42.06553 | 7.84463 | 33110 ft | 511 kts | 204° |
| 2026-04-15 22:25 | 41.99965 | 7.80859 | 33113 ft | 511 kts | 204° |
| 2026-04-15 22:25 | 41.93386 | 7.77267 | 33119 ft | 511 kts | 204° |
| 2026-04-15 22:26 | 41.86777 | 7.73668 | 33117 ft | 513 kts | 204° |
| 2026-04-15 22:26 | 41.80160 | 7.70071 | 33115 ft | 513 kts | 204° |
| 2026-04-15 22:27 | 41.73542 | 7.66480 | 33111 ft | 513 kts | 204° |
| 2026-04-15 22:27 | 41.66900 | 7.62885 | 33107 ft | 516 kts | 204° |
| 2026-04-15 22:28 | 41.60256 | 7.59413 | 33113 ft | 517 kts | 201° |
| 2026-04-15 22:28 | 41.53366 | 7.56814 | 33105 ft | 514 kts | 193° |
| 2026-04-15 22:29 | 41.46302 | 7.55122 | 33118 ft | 517 kts | 191° |
| 2026-04-15 22:29 | 41.39208 | 7.53523 | 33116 ft | 517 kts | 191° |
| 2026-04-15 22:30 | 41.32119 | 7.51909 | 33117 ft | 517 kts | 191° |
| 2026-04-15 22:30 | 41.25008 | 7.50285 | 33122 ft | 519 kts | 191° |
| 2026-04-15 22:31 | 41.17884 | 7.48657 | 33120 ft | 520 kts | 191° |
| 2026-04-15 22:31 | 41.10756 | 7.47032 | 33120 ft | 519 kts | 191° |
| 2026-04-15 22:32 | 41.03617 | 7.45409 | 33120 ft | 521 kts | 191° |
| 2026-04-15 22:32 | 40.96924 | 7.43889 | 33120 ft | 521 kts | 191° |
| 2026-04-15 22:33 | 40.89774 | 7.42270 | 33119 ft | 521 kts | 191° |
| 2026-04-15 22:33 | 40.82605 | 7.40650 | 33123 ft | 524 kts | 191° |
| 2026-04-15 22:34 | 40.75417 | 7.39029 | 33117 ft | 524 kts | 191° |
| 2026-04-15 22:34 | 40.68224 | 7.37411 | 33119 ft | 524 kts | 191° |
| 2026-04-15 22:35 | 40.61044 | 7.35804 | 33110 ft | 523 kts | 191° |
| 2026-04-15 22:35 | 40.53873 | 7.34195 | 33123 ft | 522 kts | 191° |
| 2026-04-15 22:36 | 40.46754 | 7.32602 | 33115 ft | 522 kts | 191° |
| 2026-04-15 22:36 | 40.39537 | 7.30992 | 33106 ft | 522 kts | 191° |
| 2026-04-15 22:37 | 40.32422 | 7.29408 | 33131 ft | 522 kts | 191° |
| 2026-04-15 22:37 | 40.25256 | 7.27817 | 33121 ft | 522 kts | 191° |
| 2026-04-15 22:38 | 40.18078 | 7.26227 | 33125 ft | 524 kts | 191° |
| 2026-04-15 22:38 | 40.10880 | 7.24634 | 33126 ft | 524 kts | 191° |
| 2026-04-15 22:39 | 40.03683 | 7.23046 | 33115 ft | 524 kts | 191° |
| 2026-04-15 22:39 | 39.96477 | 7.21459 | 33116 ft | 526 kts | 191° |
| 2026-04-15 22:40 | 39.89266 | 7.19873 | 33116 ft | 526 kts | 191° |
| 2026-04-15 22:40 | 39.82042 | 7.18288 | 33121 ft | 526 kts | 191° |
| 2026-04-15 22:41 | 39.71176 | 7.15937 | 33119 ft | 530 kts | 190° |
| 2026-04-15 22:41 | 39.63869 | 7.14629 | 33112 ft | 530 kts | 189° |
| 2026-04-15 22:42 | 39.57748 | 7.13569 | 33124 ft | 530 kts | 189° |
| 2026-04-15 22:42 | 39.50474 | 7.12288 | 33123 ft | 531 kts | 189° |
| 2026-04-15 22:43 | 39.43146 | 7.10985 | 33127 ft | 531 kts | 189° |
| 2026-04-15 22:43 | 39.35822 | 7.09682 | 33126 ft | 531 kts | 189° |
| 2026-04-15 22:44 | 39.28473 | 7.08378 | 33126 ft | 534 kts | 189° |
| 2026-04-15 22:44 | 39.21114 | 7.07073 | 33122 ft | 534 kts | 189° |
| 2026-04-15 22:45 | 39.13760 | 7.05772 | 33126 ft | 534 kts | 189° |
| 2026-04-15 22:45 | 39.06385 | 7.04470 | 33126 ft | 535 kts | 190° |
| 2026-04-15 22:46 | 38.99010 | 7.03174 | 33122 ft | 536 kts | 189° |
| 2026-04-15 22:46 | 38.91610 | 7.01964 | 33127 ft | 536 kts | 189° |
| 2026-04-15 22:47 | 38.84196 | 7.00776 | 33130 ft | 538 kts | 189° |
| 2026-04-15 22:47 | 38.76768 | 6.99578 | 33127 ft | 538 kts | 189° |
| 2026-04-15 22:48 | 38.69330 | 6.98377 | 33140 ft | 542 kts | 189° |
| 2026-04-15 22:48 | 38.65552 | 6.97767 | 33278 ft | 546 kts | 189° |
| 2026-04-15 22:48 | 38.61781 | 6.97160 | 33534 ft | 547 kts | 189° |
| 2026-04-15 22:49 | 38.58000 | 6.96552 | 33880 ft | 546 kts | 189° |
| 2026-04-15 22:49 | 38.54237 | 6.95948 | 34234 ft | 545 kts | 189° |
| 2026-04-15 22:49 | 38.50480 | 6.95343 | 34545 ft | 544 kts | 189° |
| 2026-04-15 22:49 | 38.46732 | 6.94740 | 34843 ft | 542 kts | 189° |
| 2026-04-15 22:50 | 38.42989 | 6.94138 | 35101 ft | 542 kts | 189° |
| 2026-04-15 22:50 | 38.39244 | 6.93538 | 35125 ft | 542 kts | 189° |
| 2026-04-15 22:50 | 38.31765 | 6.92340 | 35135 ft | 542 kts | 189° |
| 2026-04-15 22:51 | 38.24289 | 6.91146 | 35139 ft | 542 kts | 189° |
| 2026-04-15 22:51 | 38.16811 | 6.89954 | 35134 ft | 542 kts | 189° |
| 2026-04-15 22:52 | 38.09331 | 6.88764 | 35139 ft | 541 kts | 189° |
| 2026-04-15 22:52 | 38.01853 | 6.87578 | 35137 ft | 541 kts | 189° |
| 2026-04-15 22:53 | 37.96921 | 6.86796 | 35140 ft | 542 kts | 189° |
| 2026-04-15 22:53 | 37.89426 | 6.85610 | 35144 ft | 543 kts | 189° |
| 2026-04-15 22:54 | 37.81915 | 6.84425 | 35144 ft | 543 kts | 189° |
| 2026-04-15 22:54 | 37.74490 | 6.83257 | 35141 ft | 540 kts | 189° |
| 2026-04-15 22:55 | 37.67034 | 6.82084 | 35149 ft | 540 kts | 189° |
| 2026-04-15 22:55 | 37.59567 | 6.80912 | 35153 ft | 541 kts | 189° |
| 2026-04-15 22:56 | 37.52098 | 6.79742 | 35155 ft | 541 kts | 189° |
| 2026-04-15 22:56 | 37.44629 | 6.78576 | 35153 ft | 541 kts | 189° |
| 2026-04-15 22:57 | 37.37155 | 6.77410 | 35156 ft | 541 kts | 189° |
| 2026-04-15 22:57 | 37.29686 | 6.76247 | 35159 ft | 541 kts | 189° |
| 2026-04-15 22:58 | 37.22212 | 6.75088 | 35159 ft | 541 kts | 189° |
| 2026-04-15 22:58 | 37.14744 | 6.73929 | 35160 ft | 541 kts | 189° |
| 2026-04-15 22:59 | 37.07274 | 6.72773 | 35161 ft | 541 kts | 189° |
| 2026-04-15 22:59 | 36.99806 | 6.71620 | 35161 ft | 541 kts | 190° |
| 2026-04-15 23:00 | 36.92347 | 6.70471 | 35175 ft | 540 kts | 190° |
| 2026-04-15 23:00 | 36.84875 | 6.69321 | 35184 ft | 541 kts | 190° |
| 2026-04-15 23:01 | 36.77410 | 6.68175 | 35170 ft | 540 kts | 190° |
| 2026-04-15 23:01 | 36.69935 | 6.67031 | 35197 ft | 541 kts | 190° |
| 2026-04-15 23:02 | 36.62462 | 6.65887 | 35196 ft | 541 kts | 190° |
| 2026-04-15 23:02 | 36.54985 | 6.64745 | 35216 ft | 541 kts | 190° |
| 2026-04-15 23:03 | 36.47507 | 6.63606 | 35204 ft | 542 kts | 190° |
| 2026-04-15 23:03 | 36.40013 | 6.62463 | 35210 ft | 543 kts | 190° |
| 2026-04-15 23:04 | 36.32511 | 6.61366 | 35202 ft | 543 kts | 188° |
| 2026-04-15 23:04 | 36.24933 | 6.61068 | 35215 ft | 547 kts | 180° |
| 2026-04-15 23:05 | 36.17318 | 6.61554 | 35203 ft | 548 kts | 178° |
| 2026-04-15 23:05 | 36.09717 | 6.62076 | 35204 ft | 548 kts | 178° |
| 2026-04-15 23:06 | 36.02100 | 6.62574 | 35207 ft | 547 kts | 179° |
| 2026-04-15 23:06 | 35.94552 | 6.63051 | 35216 ft | 547 kts | 179° |
| 2026-04-15 23:07 | 35.86890 | 6.63532 | 35215 ft | 547 kts | 179° |
| 2026-04-15 23:07 | 35.79336 | 6.64005 | 35224 ft | 547 kts | 179° |
| 2026-04-15 23:08 | 35.71733 | 6.64481 | 35216 ft | 547 kts | 179° |
| 2026-04-15 23:08 | 35.64120 | 6.64957 | 35222 ft | 547 kts | 179° |
| 2026-04-15 23:09 | 35.56515 | 6.65432 | 35191 ft | 547 kts | 179° |
| 2026-04-15 23:09 | 35.48933 | 6.65907 | 35211 ft | 545 kts | 179° |
| 2026-04-15 23:10 | 35.41371 | 6.66375 | 35206 ft | 544 kts | 179° |
| 2026-04-15 23:10 | 35.33804 | 6.66843 | 35194 ft | 544 kts | 179° |
| 2026-04-15 23:11 | 35.26231 | 6.67312 | 35189 ft | 547 kts | 179° |
| 2026-04-15 23:11 | 35.18624 | 6.67780 | 35184 ft | 548 kts | 179° |
| 2026-04-15 23:12 | 35.11003 | 6.68250 | 35171 ft | 548 kts | 179° |
| 2026-04-15 23:12 | 35.03370 | 6.68719 | 35177 ft | 553 kts | 179° |
| 2026-04-15 23:13 | 34.95632 | 6.69192 | 35137 ft | 558 kts | 179° |
| 2026-04-15 23:13 | 34.87879 | 6.69668 | 35129 ft | 558 kts | 179° |
| 2026-04-15 23:14 | 34.80113 | 6.70143 | 35059 ft | 559 kts | 179° |
| 2026-04-15 23:14 | 34.72431 | 6.70634 | 35098 ft | 548 kts | 180° |
| 2026-04-15 23:15 | 34.64823 | 6.71107 | 35100 ft | 547 kts | 180° |
| 2026-04-15 23:15 | 34.57228 | 6.71575 | 35100 ft | 547 kts | 180° |
| 2026-04-15 23:16 | 34.49685 | 6.72045 | 35084 ft | 545 kts | 180° |
| 2026-04-15 23:16 | 34.42113 | 6.72512 | 35091 ft | 545 kts | 180° |
| 2026-04-15 23:17 | 34.34545 | 6.72978 | 35096 ft | 544 kts | 180° |
| 2026-04-15 23:17 | 34.26979 | 6.73444 | 35094 ft | 545 kts | 180° |
| 2026-04-15 23:18 | 34.19396 | 6.73911 | 35093 ft | 546 kts | 180° |
| 2026-04-15 23:18 | 34.11811 | 6.74376 | 35093 ft | 546 kts | 180° |
| 2026-04-15 23:19 | 34.04222 | 6.74841 | 35097 ft | 546 kts | 180° |
| 2026-04-15 23:19 | 33.96647 | 6.75306 | 35089 ft | 545 kts | 180° |
| 2026-04-15 23:20 | 33.89074 | 6.75767 | 35087 ft | 545 kts | 180° |
| 2026-04-15 23:20 | 33.81501 | 6.76228 | 35085 ft | 545 kts | 180° |
| 2026-04-15 23:21 | 33.73928 | 6.76690 | 35084 ft | 544 kts | 180° |
| 2026-04-15 23:21 | 33.66374 | 6.77148 | 35098 ft | 543 kts | 180° |
| 2026-04-15 23:22 | 33.58828 | 6.77602 | 35103 ft | 543 kts | 180° |
| 2026-04-15 23:22 | 33.51279 | 6.78048 | 35101 ft | 543 kts | 181° |
| 2026-04-15 23:23 | 33.43744 | 6.78181 | 35099 ft | 541 kts | 184° |
| 2026-04-15 23:23 | 33.36275 | 6.78259 | 35098 ft | 540 kts | 184° |
| 2026-04-15 23:24 | 33.28749 | 6.78340 | 35097 ft | 541 kts | 184° |
| 2026-04-15 23:24 | 33.21232 | 6.78424 | 35094 ft | 541 kts | 184° |
| 2026-04-15 23:25 | 33.13711 | 6.78510 | 35091 ft | 540 kts | 184° |
| 2026-04-15 23:25 | 33.06190 | 6.78595 | 35092 ft | 540 kts | 184° |
| 2026-04-15 23:26 | 32.98675 | 6.78681 | 35091 ft | 540 kts | 184° |
| 2026-04-15 23:26 | 32.91170 | 6.78769 | 35090 ft | 539 kts | 184° |
| 2026-04-15 23:27 | 32.83673 | 6.78853 | 35092 ft | 539 kts | 184° |
| 2026-04-15 23:27 | 32.76168 | 6.78937 | 35092 ft | 539 kts | 184° |
| 2026-04-15 23:28 | 32.68666 | 6.79022 | 35081 ft | 538 kts | 184° |
| 2026-04-15 23:28 | 32.62459 | 6.79096 | 35093 ft | 536 kts | 184° |
| 2026-04-15 23:29 | 32.53791 | 6.79191 | 35096 ft | 536 kts | 184° |
| 2026-04-15 23:29 | 32.47540 | 6.79260 | 35096 ft | 536 kts | 184° |
| 2026-04-15 23:30 | 32.40088 | 6.79347 | 35082 ft | 535 kts | 184° |
| 2026-04-15 23:30 | 32.32657 | 6.79431 | 35095 ft | 533 kts | 184° |
| 2026-04-15 23:31 | 32.25242 | 6.79512 | 35097 ft | 533 kts | 184° |
| 2026-04-15 23:31 | 32.17823 | 6.79594 | 35096 ft | 533 kts | 184° |
| 2026-04-15 23:32 | 32.10422 | 6.79680 | 35091 ft | 531 kts | 185° |
| 2026-04-15 23:32 | 32.03044 | 6.79761 | 35096 ft | 530 kts | 185° |
| 2026-04-15 23:33 | 31.95717 | 6.79841 | 35097 ft | 530 kts | 185° |
| 2026-04-15 23:33 | 31.88337 | 6.79923 | 35077 ft | 530 kts | 185° |
| 2026-04-15 23:34 | 31.80928 | 6.80008 | 35093 ft | 528 kts | 185° |
| 2026-04-15 23:36 | 31.55290 | 6.80292 | 35093 ft | 526 kts | 185° |
| 2026-04-15 23:36 | 31.47979 | 6.80371 | 35095 ft | 525 kts | 185° |
| 2026-04-15 23:37 | 31.40677 | 6.80450 | 35092 ft | 525 kts | 185° |
| 2026-04-15 23:37 | 31.33368 | 6.80530 | 35074 ft | 525 kts | 185° |
| 2026-04-15 23:38 | 31.26080 | 6.80612 | 35099 ft | 523 kts | 185° |
| 2026-04-15 23:38 | 31.18809 | 6.80691 | 35093 ft | 523 kts | 185° |
| 2026-04-15 23:39 | 31.11535 | 6.80769 | 35093 ft | 523 kts | 185° |
| 2026-04-15 23:39 | 31.04266 | 6.80850 | 35080 ft | 522 kts | 185° |
| 2026-04-15 23:40 | 30.97021 | 6.80931 | 35094 ft | 520 kts | 185° |
| 2026-04-15 23:40 | 30.89793 | 6.81008 | 35099 ft | 519 kts | 185° |
| 2026-04-15 23:41 | 30.82562 | 6.81085 | 35100 ft | 519 kts | 185° |
| 2026-04-15 23:41 | 30.75339 | 6.81165 | 35082 ft | 518 kts | 186° |
| 2026-04-15 23:42 | 30.68142 | 6.81245 | 35092 ft | 517 kts | 186° |
| 2026-04-15 23:42 | 30.60957 | 6.81321 | 35100 ft | 517 kts | 186° |
| 2026-04-15 23:43 | 30.53767 | 6.81397 | 35101 ft | 516 kts | 186° |
| 2026-04-15 23:43 | 30.46580 | 6.81474 | 35099 ft | 516 kts | 186° |
| 2026-04-15 23:44 | 30.39395 | 6.81552 | 35098 ft | 516 kts | 186° |
| 2026-04-15 23:44 | 30.32207 | 6.81629 | 35099 ft | 516 kts | 186° |
| 2026-04-15 23:45 | 30.25019 | 6.81706 | 35100 ft | 516 kts | 186° |
| 2026-04-15 23:45 | 30.17892 | 6.81785 | 35090 ft | 515 kts | 186° |
| 2026-04-15 23:46 | 30.10736 | 6.81862 | 35096 ft | 514 kts | 186° |
| 2026-04-15 23:46 | 30.03589 | 6.81937 | 35100 ft | 514 kts | 186° |
| 2026-04-15 23:47 | 29.96434 | 6.82013 | 35100 ft | 514 kts | 186° |
| 2026-04-15 23:47 | 29.89296 | 6.82089 | 35087 ft | 512 kts | 186° |
| 2026-04-15 23:48 | 29.82177 | 6.82165 | 35100 ft | 511 kts | 186° |
| 2026-04-15 23:48 | 29.75066 | 6.82240 | 35101 ft | 511 kts | 186° |
| 2026-04-15 23:49 | 29.67950 | 6.82316 | 35101 ft | 511 kts | 186° |
| 2026-04-15 23:49 | 29.60856 | 6.82390 | 35089 ft | 508 kts | 186° |
| 2026-04-15 23:50 | 29.53792 | 6.82466 | 35100 ft | 507 kts | 186° |
| 2026-04-15 23:50 | 29.46739 | 6.82541 | 35101 ft | 507 kts | 186° |
| 2026-04-15 23:51 | 29.36163 | 6.82652 | 35076 ft | 507 kts | 186° |
| 2026-04-15 23:51 | 29.29127 | 6.82726 | 35096 ft | 505 kts | 186° |
| 2026-04-15 23:52 | 29.22105 | 6.82800 | 35102 ft | 505 kts | 186° |
| 2026-04-15 23:52 | 29.15080 | 6.82874 | 35103 ft | 504 kts | 186° |
| 2026-04-15 23:53 | 29.08061 | 6.82947 | 35102 ft | 505 kts | 186° |
| 2026-04-15 23:53 | 29.01052 | 6.83024 | 35093 ft | 503 kts | 186° |
| 2026-04-15 23:54 | 28.94068 | 6.83095 | 35096 ft | 502 kts | 186° |
| 2026-04-15 23:54 | 28.87080 | 6.83167 | 35100 ft | 502 kts | 186° |
| 2026-04-15 23:55 | 28.80139 | 6.83239 | 35101 ft | 502 kts | 186° |
| 2026-04-15 23:55 | 28.73166 | 6.83317 | 35089 ft | 500 kts | 186° |
| 2026-04-15 23:56 | 28.66205 | 6.83387 | 35104 ft | 500 kts | 186° |
| 2026-04-15 23:56 | 28.59250 | 6.83457 | 35101 ft | 500 kts | 186° |
| 2026-04-15 23:57 | 28.52299 | 6.83528 | 35103 ft | 500 kts | 186° |
| 2026-04-15 23:57 | 28.45351 | 6.83602 | 35096 ft | 498 kts | 187° |
| 2026-04-15 23:58 | 28.38418 | 6.83673 | 35099 ft | 498 kts | 187° |
| 2026-04-15 23:58 | 28.31494 | 6.83742 | 35103 ft | 498 kts | 187° |
| 2026-04-15 23:59 | 28.24573 | 6.83811 | 35100 ft | 497 kts | 187° |
| 2026-04-15 23:59 | 28.17649 | 6.83883 | 35082 ft | 496 kts | 187° |
| 2026-04-16 00:00 | 28.10752 | 6.84205 | 35093 ft | 499 kts | 182° |
| 2026-04-16 00:00 | 28.03821 | 6.84974 | 35108 ft | 501 kts | 182° |
| 2026-04-16 00:01 | 27.96881 | 6.85751 | 35096 ft | 501 kts | 182° |
| 2026-04-16 00:01 | 27.89940 | 6.86522 | 35086 ft | 501 kts | 182° |
| 2026-04-16 00:02 | 27.83028 | 6.87293 | 35079 ft | 497 kts | 182° |
| 2026-04-16 00:02 | 27.76141 | 6.88052 | 35088 ft | 497 kts | 182° |
| 2026-04-16 00:03 | 27.69264 | 6.88808 | 35087 ft | 497 kts | 182° |
| 2026-04-16 00:03 | 27.62431 | 6.89559 | 35086 ft | 497 kts | 182° |
| 2026-04-16 00:04 | 27.55552 | 6.90316 | 35086 ft | 496 kts | 182° |
| 2026-04-16 00:04 | 27.48672 | 6.91072 | 35090 ft | 496 kts | 182° |
| 2026-04-16 00:05 | 27.41798 | 6.91826 | 35084 ft | 497 kts | 182° |
| 2026-04-16 00:05 | 27.34918 | 6.92580 | 35086 ft | 497 kts | 182° |
| 2026-04-16 00:06 | 27.28040 | 6.93334 | 35074 ft | 496 kts | 182° |
| 2026-04-16 00:06 | 27.21174 | 6.94086 | 35086 ft | 495 kts | 182° |
| 2026-04-16 00:07 | 27.14315 | 6.94834 | 35085 ft | 495 kts | 182° |
| 2026-04-16 00:07 | 27.07457 | 6.95581 | 35086 ft | 495 kts | 182° |
| 2026-04-16 00:08 | 27.00593 | 6.96327 | 35089 ft | 495 kts | 182° |
| 2026-04-16 00:08 | 26.93745 | 6.97078 | 35078 ft | 495 kts | 183° |
| 2026-04-16 00:09 | 26.86905 | 6.97819 | 35077 ft | 493 kts | 183° |
| 2026-04-16 00:09 | 26.80063 | 6.98558 | 35084 ft | 494 kts | 183° |
| 2026-04-16 00:10 | 26.73219 | 6.99299 | 35084 ft | 494 kts | 183° |
| 2026-04-16 00:10 | 26.66379 | 7.00043 | 35079 ft | 495 kts | 183° |
| 2026-04-16 00:11 | 26.59531 | 7.00785 | 35075 ft | 494 kts | 183° |
| 2026-04-16 00:11 | 26.52689 | 7.01520 | 35083 ft | 493 kts | 183° |
| 2026-04-16 00:12 | 26.45855 | 7.02256 | 35087 ft | 493 kts | 183° |
| 2026-04-16 00:12 | 26.39069 | 7.02987 | 35057 ft | 493 kts | 183° |
| 2026-04-16 00:13 | 26.32239 | 7.03728 | 35073 ft | 493 kts | 184° |
| 2026-04-16 00:13 | 26.25413 | 7.04458 | 35075 ft | 492 kts | 184° |
| 2026-04-16 00:14 | 26.18588 | 7.05189 | 35084 ft | 493 kts | 184° |
| 2026-04-16 00:14 | 26.11760 | 7.05921 | 35088 ft | 493 kts | 184° |
| 2026-04-16 00:15 | 26.04912 | 7.06658 | 35071 ft | 495 kts | 185° |
| 2026-04-16 00:15 | 25.98050 | 7.07384 | 35085 ft | 496 kts | 185° |
| 2026-04-16 00:16 | 25.91189 | 7.08132 | 35089 ft | 496 kts | 185° |
| 2026-04-16 00:16 | 25.85479 | 7.08754 | 35090 ft | 496 kts | 185° |
| 2026-04-16 00:17 | 25.78608 | 7.09504 | 35093 ft | 496 kts | 185° |
| 2026-04-16 00:17 | 25.71724 | 7.10258 | 35086 ft | 499 kts | 185° |
| 2026-04-16 00:18 | 25.64811 | 7.11006 | 35089 ft | 499 kts | 185° |
| 2026-04-16 00:18 | 25.57903 | 7.11754 | 35082 ft | 499 kts | 185° |
| 2026-04-16 00:19 | 25.50994 | 7.12503 | 35081 ft | 499 kts | 185° |
| 2026-04-16 00:19 | 25.44079 | 7.13255 | 35057 ft | 499 kts | 186° |
| 2026-04-16 00:20 | 25.37167 | 7.14004 | 35072 ft | 499 kts | 186° |
| 2026-04-16 00:20 | 25.30261 | 7.14747 | 35075 ft | 499 kts | 186° |
| 2026-04-16 00:21 | 25.23355 | 7.15492 | 35077 ft | 499 kts | 186° |
| 2026-04-16 00:21 | 25.16453 | 7.16235 | 35071 ft | 498 kts | 186° |
| 2026-04-16 00:22 | 25.09626 | 7.16979 | 35061 ft | 493 kts | 186° |
| 2026-04-16 00:22 | 25.02817 | 7.17707 | 35056 ft | 492 kts | 186° |
| 2026-04-16 00:23 | 24.96002 | 7.18434 | 35052 ft | 492 kts | 186° |
| 2026-04-16 00:23 | 24.89192 | 7.19169 | 35053 ft | 492 kts | 186° |
| 2026-04-16 00:24 | 24.82385 | 7.19901 | 35012 ft | 491 kts | 186° |
| 2026-04-16 00:24 | 24.75607 | 7.20631 | 35043 ft | 489 kts | 186° |
| 2026-04-16 00:25 | 24.68846 | 7.21357 | 35052 ft | 488 kts | 186° |
| 2026-04-16 00:25 | 24.62085 | 7.22081 | 35050 ft | 488 kts | 186° |
| 2026-04-16 00:26 | 24.55319 | 7.22806 | 35034 ft | 488 kts | 186° |
| 2026-04-16 00:26 | 24.48556 | 7.23529 | 35042 ft | 488 kts | 186° |
| 2026-04-16 00:27 | 24.41791 | 7.24253 | 35046 ft | 488 kts | 186° |
| 2026-04-16 00:27 | 24.35028 | 7.24975 | 35046 ft | 488 kts | 186° |
| 2026-04-16 00:28 | 24.28268 | 7.25696 | 35040 ft | 488 kts | 186° |
| 2026-04-16 00:28 | 24.21510 | 7.26415 | 35040 ft | 488 kts | 186° |
| 2026-04-16 00:29 | 24.14757 | 7.27133 | 35033 ft | 487 kts | 186° |
| 2026-04-16 00:29 | 24.08010 | 7.27851 | 35037 ft | 487 kts | 186° |
| 2026-04-16 00:30 | 24.01269 | 7.28567 | 35037 ft | 487 kts | 186° |
| 2026-04-16 00:30 | 23.94521 | 7.29282 | 35022 ft | 487 kts | 186° |
| 2026-04-16 00:31 | 23.87780 | 7.29995 | 35010 ft | 486 kts | 186° |
| 2026-04-16 00:31 | 23.81097 | 7.30704 | 35009 ft | 486 kts | 186° |
| 2026-04-16 00:32 | 23.74364 | 7.31415 | 35011 ft | 486 kts | 186° |
| 2026-04-16 00:32 | 23.67636 | 7.32126 | 35001 ft | 486 kts | 186° |
| 2026-04-16 00:33 | 23.60906 | 7.32836 | 35002 ft | 486 kts | 186° |
| 2026-04-16 00:33 | 23.54183 | 7.33542 | 34973 ft | 485 kts | 185° |
| 2026-04-16 00:34 | 23.47464 | 7.34382 | 34986 ft | 488 kts | 183° |
| 2026-04-16 00:34 | 23.40738 | 7.35356 | 34971 ft | 487 kts | 183° |
| 2026-04-16 00:35 | 23.34011 | 7.36330 | 34975 ft | 487 kts | 183° |
| 2026-04-16 00:35 | 23.27285 | 7.37302 | 34964 ft | 487 kts | 183° |
| 2026-04-16 00:36 | 23.20567 | 7.38268 | 34956 ft | 487 kts | 183° |
| 2026-04-16 00:36 | 23.13846 | 7.39237 | 34950 ft | 487 kts | 183° |
| 2026-04-16 00:37 | 23.07133 | 7.40203 | 34949 ft | 487 kts | 183° |
| 2026-04-16 00:37 | 23.00423 | 7.41168 | 34945 ft | 486 kts | 183° |
| 2026-04-16 00:38 | 22.93718 | 7.42131 | 34946 ft | 486 kts | 183° |
| 2026-04-16 00:38 | 22.87009 | 7.43090 | 34930 ft | 486 kts | 183° |
| 2026-04-16 00:39 | 22.80311 | 7.44050 | 34930 ft | 486 kts | 183° |
| 2026-04-16 00:39 | 22.73610 | 7.45010 | 34932 ft | 486 kts | 183° |
| 2026-04-16 00:40 | 22.66919 | 7.45968 | 34922 ft | 485 kts | 183° |
| 2026-04-16 00:40 | 22.60220 | 7.46924 | 34900 ft | 485 kts | 183° |
| 2026-04-16 00:41 | 22.53584 | 7.47871 | 34918 ft | 483 kts | 182° |
| 2026-04-16 00:41 | 22.46918 | 7.48822 | 34918 ft | 483 kts | 182° |
| 2026-04-16 00:42 | 22.40250 | 7.49771 | 34908 ft | 483 kts | 182° |
| 2026-04-16 00:42 | 22.33590 | 7.50718 | 34910 ft | 483 kts | 182° |
| 2026-04-16 00:43 | 22.26927 | 7.51665 | 34880 ft | 482 kts | 182° |
| 2026-04-16 00:43 | 22.20284 | 7.52608 | 34897 ft | 481 kts | 182° |
| 2026-04-16 00:44 | 22.13655 | 7.53549 | 34895 ft | 480 kts | 182° |
| 2026-04-16 00:44 | 22.07027 | 7.54489 | 34895 ft | 480 kts | 182° |
| 2026-04-16 00:45 | 22.00445 | 7.55421 | 34888 ft | 480 kts | 182° |
| 2026-04-16 00:45 | 21.93820 | 7.56357 | 34884 ft | 479 kts | 182° |
| 2026-04-16 00:46 | 21.87217 | 7.57290 | 34884 ft | 478 kts | 182° |
| 2026-04-16 00:46 | 21.80628 | 7.58221 | 34879 ft | 478 kts | 182° |
| 2026-04-16 00:47 | 21.74033 | 7.59152 | 34877 ft | 478 kts | 182° |
| 2026-04-16 00:47 | 21.67429 | 7.60083 | 34878 ft | 479 kts | 182° |
| 2026-04-16 00:48 | 21.60825 | 7.61012 | 34844 ft | 478 kts | 182° |
| 2026-04-16 00:48 | 21.54238 | 7.61939 | 34868 ft | 477 kts | 182° |
| 2026-04-16 00:50 | 21.27937 | 7.65631 | 34867 ft | 476 kts | 182° |
| 2026-04-16 00:51 | 21.21361 | 7.66552 | 34858 ft | 476 kts | 182° |
| 2026-04-16 00:51 | 21.14785 | 7.67472 | 34859 ft | 476 kts | 182° |
| 2026-04-16 00:52 | 21.08211 | 7.68390 | 34855 ft | 476 kts | 182° |
| 2026-04-16 00:52 | 21.01637 | 7.69308 | 34859 ft | 476 kts | 182° |
| 2026-04-16 00:53 | 20.95068 | 7.70131 | 34822 ft | 472 kts | 185° |
| 2026-04-16 00:53 | 20.88519 | 7.70662 | 34843 ft | 473 kts | 185° |
| 2026-04-16 00:54 | 20.81962 | 7.71191 | 34841 ft | 473 kts | 185° |
| 2026-04-16 00:54 | 20.75400 | 7.71720 | 34841 ft | 472 kts | 185° |
| 2026-04-16 00:55 | 20.68846 | 7.72249 | 34840 ft | 472 kts | 185° |
| 2026-04-16 00:55 | 20.62288 | 7.72776 | 34819 ft | 472 kts | 185° |
| 2026-04-16 00:56 | 20.55728 | 7.73302 | 34829 ft | 473 kts | 185° |
| 2026-04-16 00:56 | 20.49155 | 7.73832 | 34834 ft | 473 kts | 185° |
| 2026-04-16 00:57 | 20.39354 | 7.74620 | 34839 ft | 473 kts | 185° |
| 2026-04-16 00:58 | 20.32787 | 7.75148 | 34837 ft | 473 kts | 185° |
| 2026-04-16 00:58 | 20.26218 | 7.75671 | 34830 ft | 474 kts | 185° |
| 2026-04-16 00:59 | 20.19642 | 7.76199 | 34831 ft | 474 kts | 185° |
| 2026-04-16 00:59 | 20.13071 | 7.76726 | 34831 ft | 474 kts | 185° |
| 2026-04-16 01:00 | 20.06491 | 7.77253 | 34831 ft | 474 kts | 185° |
| 2026-04-16 01:00 | 19.99924 | 7.77778 | 34830 ft | 474 kts | 185° |
| 2026-04-16 01:01 | 19.93353 | 7.78300 | 34817 ft | 473 kts | 184° |
| 2026-04-16 01:01 | 19.86787 | 7.78824 | 34820 ft | 473 kts | 184° |
| 2026-04-16 01:02 | 19.80216 | 7.79349 | 34821 ft | 473 kts | 184° |
| 2026-04-16 01:02 | 19.73651 | 7.79872 | 34821 ft | 473 kts | 184° |
| 2026-04-16 01:03 | 19.67087 | 7.80394 | 34824 ft | 473 kts | 184° |
| 2026-04-16 01:03 | 19.60523 | 7.80914 | 34807 ft | 473 kts | 184° |
| 2026-04-16 01:04 | 19.53957 | 7.81436 | 34815 ft | 473 kts | 184° |
| 2026-04-16 01:04 | 19.47398 | 7.81963 | 34814 ft | 473 kts | 184° |
| 2026-04-16 01:05 | 19.41949 | 7.82414 | 34816 ft | 473 kts | 184° |
| 2026-04-16 01:05 | 19.35381 | 7.82959 | 34804 ft | 473 kts | 184° |
| 2026-04-16 01:06 | 19.28823 | 7.83501 | 34786 ft | 473 kts | 184° |
| 2026-04-16 01:06 | 19.22275 | 7.84036 | 34797 ft | 471 kts | 183° |
| 2026-04-16 01:07 | 19.15735 | 7.84578 | 34800 ft | 471 kts | 183° |
| 2026-04-16 01:07 | 19.09200 | 7.85117 | 34801 ft | 471 kts | 183° |
| 2026-04-16 01:08 | 19.02662 | 7.85655 | 34800 ft | 471 kts | 183° |
| 2026-04-16 01:08 | 18.96132 | 7.86192 | 34797 ft | 471 kts | 183° |
| 2026-04-16 01:09 | 18.89601 | 7.86722 | 34788 ft | 471 kts | 182° |
| 2026-04-16 01:09 | 18.83067 | 7.87263 | 34793 ft | 471 kts | 182° |
| 2026-04-16 01:10 | 18.76540 | 7.87802 | 34794 ft | 471 kts | 182° |
| 2026-04-16 01:10 | 18.70009 | 7.88338 | 34794 ft | 471 kts | 182° |
| 2026-04-16 01:11 | 18.63483 | 7.88872 | 34791 ft | 471 kts | 182° |
| 2026-04-16 01:11 | 18.56946 | 7.89407 | 34787 ft | 472 kts | 182° |
| 2026-04-16 01:12 | 18.50398 | 7.89942 | 34789 ft | 472 kts | 182° |
| 2026-04-16 01:12 | 18.43851 | 7.90477 | 34790 ft | 472 kts | 182° |
| 2026-04-16 01:13 | 18.37311 | 7.91011 | 34789 ft | 472 kts | 182° |
| 2026-04-16 01:13 | 18.30761 | 7.91544 | 34789 ft | 472 kts | 182° |
| 2026-04-16 01:14 | 18.24257 | 7.92073 | 34771 ft | 473 kts | 182° |
| 2026-04-16 01:14 | 18.17690 | 7.92609 | 34783 ft | 473 kts | 182° |
| 2026-04-16 01:15 | 18.11118 | 7.93144 | 34787 ft | 474 kts | 182° |
| 2026-04-16 01:15 | 18.04551 | 7.93678 | 34787 ft | 473 kts | 182° |
| 2026-04-16 01:16 | 17.97983 | 7.94212 | 34790 ft | 473 kts | 182° |
| 2026-04-16 01:16 | 17.91417 | 7.94745 | 34788 ft | 473 kts | 182° |
| 2026-04-16 01:17 | 17.84847 | 7.95278 | 34783 ft | 473 kts | 182° |
| 2026-04-16 01:17 | 17.78282 | 7.95810 | 34784 ft | 473 kts | 182° |
| 2026-04-16 01:18 | 17.71711 | 7.96343 | 34781 ft | 473 kts | 182° |
| 2026-04-16 01:18 | 17.65144 | 7.96874 | 34781 ft | 473 kts | 182° |
| 2026-04-16 01:19 | 17.58573 | 7.97405 | 34782 ft | 474 kts | 182° |
| 2026-04-16 01:19 | 17.51977 | 7.97934 | 34777 ft | 476 kts | 182° |
| 2026-04-16 01:20 | 17.45364 | 7.98470 | 34778 ft | 476 kts | 182° |
| 2026-04-16 01:20 | 17.38803 | 7.99001 | 34776 ft | 476 kts | 182° |
| 2026-04-16 01:21 | 17.32196 | 7.99535 | 34778 ft | 476 kts | 182° |
| 2026-04-16 01:21 | 17.25593 | 8.00067 | 34777 ft | 476 kts | 182° |
| 2026-04-16 01:22 | 17.18976 | 8.00595 | 34767 ft | 478 kts | 181° |
| 2026-04-16 01:22 | 17.12342 | 8.01131 | 34771 ft | 479 kts | 181° |
| 2026-04-16 01:23 | 17.05695 | 8.01667 | 34772 ft | 479 kts | 181° |
| 2026-04-16 01:23 | 16.99051 | 8.02201 | 34769 ft | 479 kts | 181° |
| 2026-04-16 01:24 | 16.92411 | 8.02794 | 34767 ft | 479 kts | 181° |
| 2026-04-16 01:24 | 16.85761 | 8.03444 | 34759 ft | 480 kts | 180° |
| 2026-04-16 01:25 | 16.79102 | 8.04093 | 34769 ft | 481 kts | 180° |
| 2026-04-16 01:25 | 16.72435 | 8.04741 | 34770 ft | 481 kts | 180° |
| 2026-04-16 01:26 | 16.65771 | 8.05384 | 34764 ft | 481 kts | 180° |
| 2026-04-16 01:26 | 16.59105 | 8.06026 | 34768 ft | 481 kts | 180° |
| 2026-04-16 01:27 | 16.52445 | 8.06665 | 34755 ft | 481 kts | 180° |
| 2026-04-16 01:27 | 16.45772 | 8.07304 | 34773 ft | 482 kts | 180° |
| 2026-04-16 01:28 | 16.39096 | 8.07947 | 34764 ft | 482 kts | 180° |
| 2026-04-16 01:28 | 16.32423 | 8.08588 | 34763 ft | 482 kts | 180° |
| 2026-04-16 01:29 | 16.25796 | 8.09224 | 34763 ft | 482 kts | 180° |
| 2026-04-16 01:29 | 16.19119 | 8.09864 | 34748 ft | 482 kts | 180° |
| 2026-04-16 01:30 | 16.12451 | 8.10499 | 34766 ft | 481 kts | 180° |
| 2026-04-16 01:30 | 16.05782 | 8.11139 | 34764 ft | 481 kts | 180° |
| 2026-04-16 01:31 | 15.99114 | 8.11777 | 34771 ft | 481 kts | 180° |
| 2026-04-16 01:31 | 15.92447 | 8.12414 | 34763 ft | 481 kts | 180° |
| 2026-04-16 01:32 | 15.85778 | 8.13051 | 34760 ft | 481 kts | 180° |
| 2026-04-16 01:32 | 15.79108 | 8.13684 | 34758 ft | 481 kts | 179° |
| 2026-04-16 01:33 | 15.72439 | 8.14321 | 34762 ft | 481 kts | 179° |
| 2026-04-16 01:33 | 15.65771 | 8.14958 | 34758 ft | 481 kts | 179° |
| 2026-04-16 01:34 | 15.59104 | 8.15593 | 34760 ft | 481 kts | 179° |
| 2026-04-16 01:34 | 15.52438 | 8.16227 | 34757 ft | 481 kts | 179° |
| 2026-04-16 01:35 | 15.45768 | 8.16859 | 34754 ft | 482 kts | 179° |
| 2026-04-16 01:35 | 15.39092 | 8.17493 | 34753 ft | 482 kts | 179° |
| 2026-04-16 01:36 | 15.32418 | 8.18128 | 34751 ft | 482 kts | 179° |
| 2026-04-16 01:36 | 15.25741 | 8.18762 | 34749 ft | 482 kts | 179° |
| 2026-04-16 01:37 | 15.19064 | 8.19395 | 34749 ft | 482 kts | 179° |
| 2026-04-16 01:37 | 15.12429 | 8.20023 | 34738 ft | 482 kts | 179° |
| 2026-04-16 01:38 | 15.05741 | 8.20656 | 34746 ft | 483 kts | 179° |
| 2026-04-16 01:38 | 14.99052 | 8.21293 | 34747 ft | 483 kts | 179° |
| 2026-04-16 01:39 | 14.92354 | 8.21931 | 34741 ft | 483 kts | 179° |
| 2026-04-16 01:39 | 14.85660 | 8.22567 | 34741 ft | 483 kts | 179° |
| 2026-04-16 01:40 | 14.78960 | 8.23203 | 34741 ft | 483 kts | 179° |
| 2026-04-16 01:40 | 14.72272 | 8.23834 | 34732 ft | 483 kts | 179° |
| 2026-04-16 01:41 | 14.65579 | 8.24470 | 34735 ft | 483 kts | 179° |
| 2026-04-16 01:41 | 14.58887 | 8.25105 | 34735 ft | 483 kts | 179° |
| 2026-04-16 01:42 | 14.52202 | 8.25738 | 34733 ft | 483 kts | 179° |
| 2026-04-16 01:42 | 14.45515 | 8.26371 | 34732 ft | 483 kts | 179° |
| 2026-04-16 01:43 | 14.38823 | 8.27003 | 34735 ft | 483 kts | 179° |
| 2026-04-16 01:43 | 14.32136 | 8.27635 | 34729 ft | 483 kts | 179° |
| 2026-04-16 01:44 | 14.25444 | 8.28267 | 34733 ft | 483 kts | 179° |
| 2026-04-16 01:44 | 14.18754 | 8.28898 | 34732 ft | 483 kts | 179° |
| 2026-04-16 01:45 | 14.12060 | 8.29530 | 34729 ft | 483 kts | 179° |
| 2026-04-16 01:45 | 14.05372 | 8.30159 | 34726 ft | 483 kts | 178° |
| 2026-04-16 01:46 | 13.98683 | 8.30789 | 34729 ft | 483 kts | 178° |
| 2026-04-16 01:46 | 13.92034 | 8.31416 | 34731 ft | 483 kts | 178° |
| 2026-04-16 01:47 | 13.85346 | 8.32046 | 34728 ft | 483 kts | 178° |
| 2026-04-16 01:47 | 13.78648 | 8.32675 | 34733 ft | 483 kts | 178° |
| 2026-04-16 01:48 | 13.71955 | 8.33304 | 34734 ft | 483 kts | 178° |
| 2026-04-16 01:48 | 13.65267 | 8.33931 | 34732 ft | 482 kts | 178° |
| 2026-04-16 01:49 | 13.58588 | 8.34558 | 34731 ft | 482 kts | 178° |
| 2026-04-16 01:49 | 13.51924 | 8.35182 | 34730 ft | 481 kts | 178° |
| 2026-04-16 01:50 | 13.45265 | 8.35804 | 34729 ft | 481 kts | 178° |
| 2026-04-16 01:50 | 13.38595 | 8.36427 | 34729 ft | 481 kts | 178° |
| 2026-04-16 01:51 | 13.31937 | 8.37047 | 34727 ft | 480 kts | 178° |
| 2026-04-16 01:51 | 13.25293 | 8.37668 | 34729 ft | 479 kts | 178° |
| 2026-04-16 01:52 | 13.18656 | 8.38289 | 34732 ft | 479 kts | 178° |
| 2026-04-16 01:52 | 13.12022 | 8.38908 | 34733 ft | 479 kts | 178° |
| 2026-04-16 01:53 | 13.05384 | 8.39536 | 34735 ft | 479 kts | 178° |
| 2026-04-16 01:53 | 12.99875 | 8.40087 | 34735 ft | 479 kts | 178° |
| 2026-04-16 01:54 | 12.93241 | 8.40748 | 34734 ft | 479 kts | 178° |
| 2026-04-16 01:54 | 12.86611 | 8.41409 | 34735 ft | 479 kts | 178° |
| 2026-04-16 01:55 | 12.79980 | 8.42067 | 34733 ft | 479 kts | 178° |
| 2026-04-16 01:55 | 12.73352 | 8.42724 | 34738 ft | 479 kts | 178° |
| 2026-04-16 01:56 | 12.66720 | 8.43380 | 34737 ft | 479 kts | 178° |
| 2026-04-16 01:56 | 12.60139 | 8.44029 | 34734 ft | 479 kts | 177° |
| 2026-04-16 01:57 | 12.53508 | 8.44684 | 34742 ft | 479 kts | 177° |
| 2026-04-16 01:57 | 12.46877 | 8.45341 | 34743 ft | 479 kts | 177° |
| 2026-04-16 01:58 | 12.40248 | 8.45995 | 34742 ft | 478 kts | 177° |
| 2026-04-16 01:58 | 12.33623 | 8.46649 | 34748 ft | 479 kts | 177° |
| 2026-04-16 01:59 | 12.26991 | 8.47303 | 34742 ft | 478 kts | 177° |
| 2026-04-16 01:59 | 12.20368 | 8.47954 | 34744 ft | 478 kts | 177° |
| 2026-04-16 02:00 | 12.13730 | 8.48609 | 34749 ft | 478 kts | 177° |
| 2026-04-16 02:00 | 12.07116 | 8.49261 | 34751 ft | 478 kts | 177° |
| 2026-04-16 02:01 | 12.00510 | 8.50154 | 34754 ft | 479 kts | 173° |
| 2026-04-16 02:01 | 11.93945 | 8.51328 | 34753 ft | 479 kts | 173° |
| 2026-04-16 02:02 | 11.87374 | 8.52507 | 34750 ft | 479 kts | 172° |
| 2026-04-16 02:02 | 11.80808 | 8.53685 | 34752 ft | 479 kts | 172° |
| 2026-04-16 02:03 | 11.74246 | 8.54860 | 34762 ft | 479 kts | 173° |
| 2026-04-16 02:03 | 11.67677 | 8.56035 | 34760 ft | 479 kts | 173° |
| 2026-04-16 02:04 | 11.57874 | 8.57786 | 34768 ft | 479 kts | 173° |
| 2026-04-16 02:04 | 11.51305 | 8.58959 | 34769 ft | 480 kts | 172° |
| 2026-04-16 02:05 | 11.44724 | 8.60133 | 34779 ft | 480 kts | 172° |
| 2026-04-16 02:05 | 11.38147 | 8.61307 | 34776 ft | 480 kts | 172° |
| 2026-04-16 02:06 | 11.31567 | 8.62480 | 34789 ft | 480 kts | 173° |
| 2026-04-16 02:06 | 11.24984 | 8.63653 | 34787 ft | 480 kts | 173° |
| 2026-04-16 02:07 | 11.18408 | 8.64824 | 34786 ft | 480 kts | 173° |
| 2026-04-16 02:07 | 11.11824 | 8.65995 | 34796 ft | 480 kts | 172° |
| 2026-04-16 02:08 | 11.05243 | 8.67167 | 34790 ft | 480 kts | 172° |
| 2026-04-16 02:08 | 10.98668 | 8.68337 | 34792 ft | 480 kts | 172° |
| 2026-04-16 02:09 | 10.92087 | 8.69507 | 34799 ft | 480 kts | 172° |
| 2026-04-16 02:09 | 10.85486 | 8.70474 | 34807 ft | 479 kts | 176° |
| 2026-04-16 02:10 | 10.78861 | 8.71232 | 34807 ft | 479 kts | 176° |
| 2026-04-16 02:10 | 10.72239 | 8.71985 | 34814 ft | 479 kts | 176° |
| 2026-04-16 02:11 | 10.65614 | 8.72740 | 34813 ft | 479 kts | 176° |
| 2026-04-16 02:11 | 10.58985 | 8.73496 | 34828 ft | 479 kts | 176° |
| 2026-04-16 02:12 | 10.52354 | 8.74252 | 34824 ft | 479 kts | 176° |
| 2026-04-16 02:12 | 10.45730 | 8.75008 | 34826 ft | 479 kts | 176° |
| 2026-04-16 02:13 | 10.39089 | 8.75765 | 34829 ft | 480 kts | 176° |
| 2026-04-16 02:13 | 10.32452 | 8.76521 | 34832 ft | 480 kts | 176° |
| 2026-04-16 02:14 | 10.25815 | 8.77277 | 34841 ft | 480 kts | 176° |
| 2026-04-16 02:14 | 10.19219 | 8.78028 | 34840 ft | 480 kts | 176° |
| 2026-04-16 02:15 | 10.12577 | 8.78784 | 34852 ft | 480 kts | 176° |
| 2026-04-16 02:15 | 10.05941 | 8.79536 | 34852 ft | 479 kts | 175° |
| 2026-04-16 02:16 | 9.99319 | 8.80288 | 34862 ft | 478 kts | 175° |
| 2026-04-16 02:16 | 9.92707 | 8.81042 | 34866 ft | 478 kts | 175° |
| 2026-04-16 02:17 | 9.86089 | 8.81795 | 34880 ft | 478 kts | 175° |
| 2026-04-16 02:17 | 9.79476 | 8.82546 | 34880 ft | 478 kts | 175° |
| 2026-04-16 02:18 | 9.72862 | 8.83297 | 34879 ft | 478 kts | 175° |
| 2026-04-16 02:18 | 9.66264 | 8.84038 | 34888 ft | 476 kts | 174° |
| 2026-04-16 02:19 | 9.59696 | 8.84871 | 34891 ft | 475 kts | 173° |
| 2026-04-16 02:19 | 9.53148 | 8.85807 | 34895 ft | 475 kts | 173° |
| 2026-04-16 02:20 | 9.46592 | 8.86738 | 34897 ft | 475 kts | 173° |
| 2026-04-16 02:20 | 9.40045 | 8.87660 | 34893 ft | 475 kts | 173° |
| 2026-04-16 02:21 | 9.33493 | 8.88574 | 34902 ft | 475 kts | 173° |
| 2026-04-16 02:21 | 9.26985 | 8.89479 | 34885 ft | 471 kts | 172° |
| 2026-04-16 02:22 | 9.20491 | 8.90391 | 34884 ft | 471 kts | 172° |
| 2026-04-16 02:22 | 9.14041 | 8.91294 | 34885 ft | 471 kts | 172° |
| 2026-04-16 02:23 | 9.07550 | 8.92201 | 34865 ft | 471 kts | 172° |
| 2026-04-16 02:23 | 9.01055 | 8.93108 | 34867 ft | 471 kts | 172° |
| 2026-04-16 02:24 | 8.94568 | 8.94011 | 34852 ft | 469 kts | 172° |
| 2026-04-16 02:24 | 8.88108 | 8.94912 | 34845 ft | 468 kts | 172° |
| 2026-04-16 02:25 | 8.81655 | 8.95813 | 34832 ft | 468 kts | 172° |
| 2026-04-16 02:25 | 8.75203 | 8.96713 | 34831 ft | 468 kts | 172° |
| 2026-04-16 02:26 | 8.68751 | 8.97612 | 34834 ft | 468 kts | 172° |
| 2026-04-16 02:26 | 8.62299 | 8.98510 | 34825 ft | 468 kts | 172° |
| 2026-04-16 02:27 | 8.55828 | 8.99411 | 34823 ft | 471 kts | 172° |
| 2026-04-16 02:27 | 8.49335 | 9.00314 | 34821 ft | 471 kts | 172° |
| 2026-04-16 02:28 | 8.42833 | 9.01219 | 34821 ft | 471 kts | 172° |
| 2026-04-16 02:28 | 8.36322 | 9.02046 | 34821 ft | 471 kts | 173° |
| 2026-04-16 02:29 | 8.29808 | 9.02824 | 34821 ft | 471 kts | 173° |
| 2026-04-16 02:29 | 8.23295 | 9.03608 | 34823 ft | 471 kts | 173° |
| 2026-04-16 02:30 | 8.16799 | 9.04387 | 34819 ft | 469 kts | 173° |
| 2026-04-16 02:30 | 8.10310 | 9.05167 | 34821 ft | 469 kts | 173° |
| 2026-04-16 02:31 | 8.03839 | 9.06017 | 34817 ft | 469 kts | 172° |
| 2026-04-16 02:31 | 7.97375 | 9.06909 | 34817 ft | 470 kts | 172° |
| 2026-04-16 02:32 | 7.90907 | 9.07796 | 34818 ft | 468 kts | 172° |
| 2026-04-16 02:32 | 7.84448 | 9.08677 | 34818 ft | 468 kts | 172° |
| 2026-04-16 02:33 | 7.77984 | 9.09558 | 34814 ft | 469 kts | 172° |
| 2026-04-16 02:33 | 7.71509 | 9.10439 | 34819 ft | 469 kts | 172° |
| 2026-04-16 02:34 | 7.65032 | 9.11319 | 34819 ft | 470 kts | 172° |
| 2026-04-16 02:34 | 7.58599 | 9.12194 | 34824 ft | 470 kts | 172° |
| 2026-04-16 02:35 | 7.52128 | 9.13073 | 34826 ft | 469 kts | 172° |
| 2026-04-16 02:35 | 7.45664 | 9.13950 | 34827 ft | 467 kts | 172° |
| 2026-04-16 02:36 | 7.39237 | 9.14823 | 34824 ft | 465 kts | 172° |
| 2026-04-16 02:36 | 7.32824 | 9.15694 | 34823 ft | 465 kts | 172° |
| 2026-04-16 02:37 | 7.26401 | 9.16566 | 34825 ft | 465 kts | 172° |
| 2026-04-16 02:37 | 7.19986 | 9.17437 | 34826 ft | 465 kts | 172° |
| 2026-04-16 02:38 | 7.13568 | 9.18308 | 34828 ft | 465 kts | 172° |
| 2026-04-16 02:38 | 7.07139 | 9.19056 | 34822 ft | 465 kts | 175° |
| 2026-04-16 02:39 | 7.00679 | 9.19491 | 34832 ft | 465 kts | 176° |
| 2026-04-16 02:39 | 6.94214 | 9.19915 | 34826 ft | 465 kts | 176° |
| 2026-04-16 02:40 | 6.87754 | 9.20340 | 34828 ft | 465 kts | 176° |
| 2026-04-16 02:40 | 6.82381 | 9.20694 | 34832 ft | 465 kts | 176° |
| 2026-04-16 02:41 | 6.75920 | 9.21120 | 34832 ft | 465 kts | 176° |
| 2026-04-16 02:41 | 6.69439 | 9.21546 | 34843 ft | 467 kts | 175° |
| 2026-04-16 02:42 | 6.62951 | 9.21975 | 34844 ft | 467 kts | 175° |
| 2026-04-16 02:42 | 6.56462 | 9.22403 | 34855 ft | 467 kts | 175° |
| 2026-04-16 02:43 | 6.49977 | 9.22830 | 34855 ft | 467 kts | 175° |
| 2026-04-16 02:43 | 6.43487 | 9.23258 | 34850 ft | 467 kts | 175° |
| 2026-04-16 02:44 | 6.37001 | 9.23684 | 34855 ft | 467 kts | 175° |
| 2026-04-16 02:44 | 6.30502 | 9.24110 | 34872 ft | 468 kts | 175° |
| 2026-04-16 02:45 | 6.24003 | 9.24540 | 34866 ft | 468 kts | 175° |
| 2026-04-16 02:45 | 6.17499 | 9.24979 | 34863 ft | 468 kts | 174° |
| 2026-04-16 02:46 | 6.11074 | 9.25685 | 34869 ft | 468 kts | 172° |
| 2026-04-16 02:46 | 6.04604 | 9.26440 | 34869 ft | 468 kts | 172° |
| 2026-04-16 02:47 | 5.98138 | 9.27192 | 34865 ft | 466 kts | 172° |
| 2026-04-16 02:47 | 5.91704 | 9.27940 | 34867 ft | 465 kts | 172° |
| 2026-04-16 02:48 | 5.85277 | 9.28688 | 34864 ft | 465 kts | 172° |
| 2026-04-16 02:48 | 5.78846 | 9.29435 | 34864 ft | 465 kts | 172° |
| 2026-04-16 02:49 | 5.72423 | 9.30194 | 34866 ft | 465 kts | 171° |
| 2026-04-16 02:49 | 5.66069 | 9.31371 | 34866 ft | 464 kts | 167° |
| 2026-04-16 02:50 | 5.59761 | 9.32740 | 34864 ft | 463 kts | 167° |
| 2026-04-16 02:50 | 5.53460 | 9.34114 | 34865 ft | 463 kts | 167° |
| 2026-04-16 02:51 | 5.49249 | 9.35030 | 34865 ft | 463 kts | 167° |